Main page
METAR-TAF:

METAR-TAF

Airports :

RAF Topcliffe

Topcliffe, England

latitude: 54-12N, longitude: 001-23W, elevation: 28 m

Current weather observation

The report was made 34 minutes ago, at 23:50 UTC
Wind 14 kt from the West/Southwest with gusts up to 24 kt
Temperature 5°C
Humidity 75%
Pressure 1009 hPa
Visibility 10 km or more

METAR: EGXZ 172350Z AUTO 25014G24KT 9999 FEW044/// 05/01 Q1009

Time: 00:24 (00:24 UTC)


TAF: missing

Weather observations and forecasts of more than 4000 airports (METAR and TAF reports).

The available stations are represented by yellow and red dots on the map.

Hover mouse over dot to see the name of the station.

Then click to see weather observations and forecasts.

To change the map : click on the green buttons with a black cross to zoom in, on the green button with a dash to zoom out, or on the green arrows for adjacent maps.


METAR-TAF: